createdAt,value
2022-12-29T00:02:19.309Z,92811.22
2022-12-29T00:04:51.670Z,92805.91
2022-12-29T00:07:24.054Z,92811.31
2022-12-29T00:09:56.994Z,92810.28
2022-12-29T00:12:49.374Z,92803.56
2022-12-29T00:15:39.929Z,92810.53
2022-12-29T00:18:12.332Z,92812.59
2022-12-29T00:21:01.989Z,92814.06
2022-12-29T00:23:52.587Z,92822.56
2022-12-29T00:26:43.497Z,92821.09
2022-12-29T00:29:33.745Z,92823.22
2022-12-29T00:32:34.930Z,92829.94
2022-12-29T00:35:09.241Z,92820.25
2022-12-29T00:38:02.777Z,92821.00
2022-12-29T00:40:53.122Z,92823.69
2022-12-29T00:43:45.921Z,92831.03
2022-12-29T00:46:20.267Z,92833.84
2022-12-29T00:49:10.932Z,92835.97
2022-12-29T00:51:43.342Z,92835.81
2022-12-29T00:54:16.334Z,92839.41
2022-12-29T00:56:52.183Z,92829.78
2022-12-29T00:59:25.333Z,92836.81
2022-12-29T01:01:58.781Z,92838.94
2022-12-29T01:04:31.122Z,92842.38
2022-12-29T01:07:03.935Z,92838.25
2022-12-29T01:10:00.130Z,92831.13
2022-12-29T01:12:44.148Z,92827.81
2022-12-29T01:15:17.502Z,92827.13
2022-12-29T01:17:50.653Z,92825.41
2022-12-29T01:20:23.010Z,92832.91
2022-12-29T01:22:55.591Z,92824.94
2022-12-29T01:25:28.005Z,92819.06
2022-12-29T01:28:00.356Z,92812.84
2022-12-29T01:30:34.026Z,92813.28
2022-12-29T01:33:06.356Z,92817.72
2022-12-29T01:35:39.739Z,92813.41
2022-12-29T01:38:12.183Z,92807.94
2022-12-29T01:40:45.593Z,92804.38
2022-12-29T01:43:18.086Z,92803.94
2022-12-29T01:45:54.695Z,92805.72
2022-12-29T01:48:27.124Z,92800.31
2022-12-29T01:50:59.503Z,92800.38
2022-12-29T01:53:34.933Z,92801.94
2022-12-29T01:56:09.816Z,92797.28
2022-12-29T01:58:47.585Z,92793.38
2022-12-29T02:01:22.084Z,92790.00
2022-12-29T02:03:54.956Z,92790.47
2022-12-29T02:06:32.767Z,92789.69
2022-12-29T02:09:05.108Z,92784.53
2022-12-29T02:11:39.314Z,92777.56
2022-12-29T02:14:13.492Z,92779.13
2022-12-29T02:17:00.091Z,92780.63
2022-12-29T02:20:05.192Z,92781.94
2022-12-29T02:22:49.088Z,92775.44
2022-12-29T02:25:52.955Z,92777.25
2022-12-29T02:29:05.167Z,92785.16
2022-12-29T02:31:46.935Z,92773.28
2022-12-29T02:34:27.469Z,92773.13
2022-12-29T02:37:05.902Z,92782.59
2022-12-29T02:39:45.625Z,92782.50
2022-12-29T02:42:47.399Z,92780.16
2022-12-29T02:45:27.583Z,92782.38
2022-12-29T02:48:09.214Z,92780.72
2022-12-29T02:50:49.289Z,92790.13
2022-12-29T02:53:42.068Z,92783.88
2022-12-29T02:56:14.087Z,92780.59
2022-12-29T02:58:47.107Z,92778.88
2022-12-29T03:01:34.468Z,92773.41
2022-12-29T03:04:30.219Z,92771.03
2022-12-29T03:07:13.686Z,92767.69
2022-12-29T03:09:55.493Z,92759.72
2022-12-29T03:12:50.276Z,92757.38
2022-12-29T03:15:47.003Z,92755.56
2022-12-29T03:18:23.984Z,92757.22
2022-12-29T03:21:04.258Z,92754.41
2022-12-29T03:23:37.484Z,92751.13
2022-12-29T03:26:13.022Z,92754.78
2022-12-29T03:28:54.123Z,92756.41
2022-12-29T03:31:30.008Z,92757.44
2022-12-29T03:34:05.301Z,92764.16
2022-12-29T03:36:44.800Z,92760.91
2022-12-29T03:39:21.405Z,92760.72
2022-12-29T03:42:00.336Z,92768.91
2022-12-29T03:44:34.498Z,92758.16
2022-12-29T03:47:08.125Z,92764.38
2022-12-29T03:49:40.834Z,92768.78
2022-12-29T03:52:14.953Z,92768.56
2022-12-29T03:54:49.838Z,92767.75
2022-12-29T03:57:22.361Z,92770.81
2022-12-29T04:00:02.169Z,92774.38
2022-12-29T04:02:36.324Z,92774.25
2022-12-29T04:05:09.197Z,92785.88
2022-12-29T04:07:42.313Z,92777.59
2022-12-29T04:10:14.867Z,92779.16
2022-12-29T04:12:47.305Z,92782.53
2022-12-29T04:15:20.005Z,92774.31
2022-12-29T04:17:52.348Z,92779.06
2022-12-29T04:20:44.933Z,92784.16
2022-12-29T04:23:18.731Z,92782.53
2022-12-29T04:25:51.299Z,92784.16
2022-12-29T04:28:24.033Z,92776.97
2022-12-29T04:31:19.740Z,92787.38
2022-12-29T04:33:52.791Z,92779.19
2022-12-29T04:36:29.685Z,92781.19
2022-12-29T04:39:05.493Z,92779.63
2022-12-29T04:41:38.926Z,92790.75
2022-12-29T04:44:13.699Z,92799.25
2022-12-29T04:46:46.694Z,92795.75
2022-12-29T04:49:37.228Z,92794.50
2022-12-29T04:52:40.880Z,92802.72
2022-12-29T04:55:16.510Z,92811.78
2022-12-29T04:57:51.140Z,92815.59
2022-12-29T05:00:25.542Z,92808.63
2022-12-29T05:02:58.233Z,92810.91
2022-12-29T05:05:31.316Z,92806.06
2022-12-29T05:08:05.606Z,92813.47
2022-12-29T05:10:38.752Z,92810.13
2022-12-29T05:13:16.675Z,92808.81
2022-12-29T05:15:51.982Z,92792.69
2022-12-29T05:18:24.428Z,92811.06
2022-12-29T05:20:56.766Z,92812.41
2022-12-29T05:23:29.778Z,92816.47
2022-12-29T05:26:07.407Z,92817.66
2022-12-29T05:29:09.735Z,92812.53
2022-12-29T05:31:42.184Z,92816.22
2022-12-29T05:34:15.672Z,92810.19
2022-12-29T05:36:48.227Z,92816.88
2022-12-29T05:39:21.262Z,92813.91
2022-12-29T05:42:00.957Z,92810.50
2022-12-29T05:44:42.956Z,92810.41
2022-12-29T05:47:28.991Z,92810.28
2022-12-29T05:50:16.576Z,92818.72
2022-12-29T05:53:28.782Z,92820.97
2022-12-29T05:56:02.709Z,92818.00
2022-12-29T05:58:35.833Z,92824.38
2022-12-29T06:01:08.625Z,92828.03
2022-12-29T06:03:47.764Z,92830.63
2022-12-29T06:06:20.458Z,92834.28
2022-12-29T06:08:53.355Z,92832.34
2022-12-29T06:11:26.854Z,92832.72
2022-12-29T06:14:03.229Z,92835.47
2022-12-29T06:16:36.376Z,92832.78
2022-12-29T06:19:11.473Z,92831.31
2022-12-29T06:21:43.972Z,92830.56
2022-12-29T06:24:16.403Z,92839.69
2022-12-29T06:26:48.837Z,92841.84
2022-12-29T06:29:22.101Z,92835.44
2022-12-29T06:31:58.127Z,92833.56
2022-12-29T06:34:31.354Z,92838.56
2022-12-29T06:37:03.888Z,92844.94
2022-12-29T06:39:36.231Z,92837.81
2022-12-29T06:42:15.120Z,92847.44
2022-12-29T06:45:07.911Z,92847.09
2022-12-29T06:47:40.409Z,92852.78
2022-12-29T06:50:12.777Z,92850.53
2022-12-29T06:52:45.721Z,92851.31
2022-12-29T06:55:18.058Z,92863.66
2022-12-29T06:57:50.408Z,92864.84
2022-12-29T07:00:23.697Z,92863.28
2022-12-29T07:02:56.945Z,92864.94
2022-12-29T07:05:31.755Z,92854.81
2022-12-29T07:08:04.503Z,92863.16
2022-12-29T07:10:36.829Z,92859.34
2022-12-29T07:13:09.214Z,92863.97
2022-12-29T07:15:42.393Z,92865.03
2022-12-29T07:18:14.763Z,92861.78
2022-12-29T07:20:47.077Z,92856.38
2022-12-29T07:23:19.489Z,92864.69
2022-12-29T07:25:59.992Z,92853.66
2022-12-29T07:28:33.325Z,92857.88
2022-12-29T07:31:07.120Z,92860.75
2022-12-29T07:33:39.766Z,92861.38
2022-12-29T07:36:12.402Z,92840.97
2022-12-29T07:38:44.976Z,92860.38
2022-12-29T07:41:17.276Z,92854.50
2022-12-29T07:43:49.693Z,92856.69
2022-12-29T07:46:56.513Z,92851.16
2022-12-29T07:49:30.267Z,92849.41
2022-12-29T07:52:02.631Z,92855.47
2022-12-29T07:54:35.006Z,92849.69
2022-12-29T07:57:07.401Z,92857.31
2022-12-29T07:59:39.773Z,92855.66
2022-12-29T08:02:13.017Z,92853.75
2022-12-29T08:04:45.534Z,92862.16
2022-12-29T08:07:17.859Z,92857.66
2022-12-29T08:09:50.272Z,92861.72
2022-12-29T08:12:22.565Z,92869.38
2022-12-29T08:14:55.622Z,92855.22
2022-12-29T08:17:28.581Z,92857.56
2022-12-29T08:20:01.577Z,92851.25
2022-12-29T08:22:33.912Z,92859.19
2022-12-29T08:25:06.954Z,92854.22
2022-12-29T08:27:39.337Z,92854.84
2022-12-29T08:30:12.977Z,92857.16
2022-12-29T08:32:46.186Z,92857.78
2022-12-29T08:35:18.596Z,92862.44
2022-12-29T08:37:50.929Z,92865.00
2022-12-29T08:40:23.416Z,92868.50
2022-12-29T08:42:56.070Z,92874.53
2022-12-29T08:45:28.415Z,92864.34
2022-12-29T08:48:01.665Z,92864.63
2022-12-29T08:50:34.175Z,92862.72
2022-12-29T08:53:06.614Z,92863.13
2022-12-29T08:55:39.065Z,92866.38
2022-12-29T08:58:14.708Z,92863.06
2022-12-29T09:00:48.888Z,92858.91
2022-12-29T09:03:46.022Z,92843.59
2022-12-29T09:06:15.787Z,92858.59
2022-12-29T09:08:48.232Z,92855.75
2022-12-29T09:11:22.933Z,92851.75
2022-12-29T09:13:55.749Z,92858.28
2022-12-29T09:16:28.254Z,92857.06
2022-12-29T09:19:01.544Z,92858.94
2022-12-29T09:21:33.995Z,92858.66
2022-12-29T09:24:06.525Z,92858.09
2022-12-29T09:26:43.433Z,92854.28
2022-12-29T09:29:19.179Z,92859.75
2022-12-29T09:31:51.680Z,92855.09
2022-12-29T09:34:24.921Z,92852.00
2022-12-29T09:36:57.300Z,92847.34
2022-12-29T09:39:29.606Z,92843.19
2022-12-29T09:42:07.405Z,92840.34
2022-12-29T09:44:52.427Z,92840.88
2022-12-29T09:47:27.538Z,92840.34
2022-12-29T09:50:04.513Z,92835.94
2022-12-29T09:52:44.199Z,92833.34
2022-12-29T09:55:20.006Z,92835.94
2022-12-29T09:57:57.299Z,92821.66
2022-12-29T10:00:39.453Z,92823.69
2022-12-29T10:03:16.694Z,92830.75
2022-12-29T10:05:53.915Z,92826.81
2022-12-29T10:08:35.467Z,92827.06
2022-12-29T10:11:18.397Z,92815.09
2022-12-29T10:14:13.866Z,92816.13
2022-12-29T10:16:57.346Z,92817.41
2022-12-29T10:19:44.205Z,92806.22
2022-12-29T10:22:31.705Z,92810.38
2022-12-29T10:25:13.116Z,92812.16
2022-12-29T10:27:48.900Z,92804.59
2022-12-29T10:30:21.371Z,92811.59
2022-12-29T10:32:57.383Z,92799.09
2022-12-29T10:35:36.206Z,92801.19
2022-12-29T10:38:18.226Z,92796.41
2022-12-29T10:40:55.182Z,92789.28
2022-12-29T10:43:29.600Z,92780.47
2022-12-29T10:46:06.089Z,92791.00
2022-12-29T10:48:38.554Z,92791.25
2022-12-29T10:51:11.008Z,92797.66
2022-12-29T10:53:47.805Z,92794.63
2022-12-29T10:56:30.979Z,92797.72
2022-12-29T10:59:11.441Z,92787.38
2022-12-29T11:01:56.443Z,92778.47
2022-12-29T11:04:48.670Z,92777.56
2022-12-29T11:07:27.107Z,92779.00
2022-12-29T11:10:19.266Z,92774.63
2022-12-29T11:12:57.888Z,92783.34
2022-12-29T11:15:40.071Z,92772.66
2022-12-29T11:18:24.554Z,92767.72
2022-12-29T11:21:00.861Z,92771.88
2022-12-29T11:23:35.326Z,92762.81
2022-12-29T11:26:20.979Z,92765.66
2022-12-29T11:29:18.069Z,92769.78
2022-12-29T11:31:54.208Z,92767.38
2022-12-29T11:34:31.021Z,92758.66
2022-12-29T11:37:06.595Z,92755.00
2022-12-29T11:39:45.638Z,92754.69
2022-12-29T11:42:22.778Z,92753.88
2022-12-29T11:44:55.139Z,92752.53
2022-12-29T11:47:31.096Z,92751.75
2022-12-29T11:50:07.618Z,92745.22
2022-12-29T11:52:40.017Z,92750.16
2022-12-29T11:55:19.827Z,92754.34
2022-12-29T11:57:55.809Z,92748.84
2022-12-29T12:00:31.888Z,92749.00
2022-12-29T12:03:10.555Z,92743.94
2022-12-29T12:05:50.666Z,92736.84
2022-12-29T12:08:34.222Z,92744.50
2022-12-29T12:11:12.141Z,92737.69
2022-12-29T12:13:54.782Z,92738.81
2022-12-29T12:16:34.504Z,92739.91
2022-12-29T12:19:14.604Z,92743.00
2022-12-29T12:21:55.903Z,92737.91
2022-12-29T12:24:39.905Z,92729.31
2022-12-29T12:27:19.617Z,92730.66
2022-12-29T12:29:57.358Z,92725.38
2022-12-29T12:32:43.264Z,92727.25
2022-12-29T12:35:24.402Z,92729.03
2022-12-29T12:38:10.867Z,92736.38
2022-12-29T12:41:01.484Z,92733.22
2022-12-29T12:43:44.551Z,92727.00
2022-12-29T12:46:46.144Z,92719.16
2022-12-29T12:49:59.411Z,92714.66
2022-12-29T12:52:46.747Z,92719.84
2022-12-29T12:55:35.140Z,92714.44
2022-12-29T12:58:15.588Z,92721.34
2022-12-29T13:01:10.815Z,92720.00
2022-12-29T13:04:01.363Z,92717.06
2022-12-29T13:06:43.871Z,92716.59
2022-12-29T13:09:30.435Z,92709.75
2022-12-29T13:12:13.098Z,92714.38
2022-12-29T13:15:00.152Z,92715.13
2022-12-29T13:17:40.877Z,92711.47
2022-12-29T13:20:26.362Z,92711.28
2022-12-29T13:23:03.148Z,92718.09
2022-12-29T13:25:43.045Z,92723.06
2022-12-29T13:28:26.570Z,92725.44
2022-12-29T13:31:04.980Z,92719.66
2022-12-29T13:33:48.729Z,92728.72
2022-12-29T13:36:24.921Z,92725.25
2022-12-29T13:39:04.839Z,92733.31
2022-12-29T13:41:43.849Z,92738.97
2022-12-29T13:44:21.299Z,92724.88
2022-12-29T13:46:57.061Z,92727.31
2022-12-29T13:49:30.297Z,92727.22
2022-12-29T13:52:13.913Z,92738.94
2022-12-29T13:55:00.950Z,92733.59
2022-12-29T13:57:42.772Z,92731.63
2022-12-29T14:00:18.693Z,92728.28
2022-12-29T14:03:18.530Z,92733.50
2022-12-29T14:06:06.309Z,92723.78
2022-12-29T14:08:40.065Z,92733.69
2022-12-29T14:11:15.199Z,92724.03
2022-12-29T14:13:48.984Z,92730.16
2022-12-29T14:16:31.329Z,92728.75
2022-12-29T14:19:23.995Z,92735.78
2022-12-29T14:22:00.411Z,92731.78
2022-12-29T14:24:45.843Z,92735.09
2022-12-29T14:27:44.286Z,92740.59
2022-12-29T14:30:49.162Z,92749.59
2022-12-29T14:33:24.223Z,92753.09
2022-12-29T14:35:57.665Z,92748.13
2022-12-29T14:38:31.705Z,92745.53
2022-12-29T14:41:24.143Z,92753.84
2022-12-29T14:44:03.434Z,92747.97
2022-12-29T14:46:45.087Z,92755.06
2022-12-29T14:49:23.735Z,92753.28
2022-12-29T14:52:06.632Z,92761.63
2022-12-29T14:54:49.929Z,92757.72
2022-12-29T14:57:45.052Z,92758.53
2022-12-29T15:00:22.454Z,92763.72
2022-12-29T15:03:05.850Z,92759.31
2022-12-29T15:05:44.918Z,92736.72
2022-12-29T15:08:20.167Z,92765.28
2022-12-29T15:11:00.051Z,92754.88
2022-12-29T15:13:36.217Z,92755.13
2022-12-29T15:16:22.625Z,92757.22
2022-12-29T15:18:54.999Z,92760.59
2022-12-29T15:21:30.256Z,92752.03
2022-12-29T15:24:04.365Z,92754.38
2022-12-29T15:26:38.089Z,92750.97
2022-12-29T15:29:30.445Z,92743.97
2022-12-29T15:32:19.788Z,92747.38
2022-12-29T15:34:54.522Z,92746.56
2022-12-29T15:37:29.076Z,92752.81
2022-12-29T15:40:01.959Z,92745.03
2022-12-29T15:43:04.189Z,92744.25
2022-12-29T15:45:37.518Z,92756.19
2022-12-29T15:48:17.031Z,92750.22
2022-12-29T15:50:50.455Z,92751.25
2022-12-29T15:53:28.367Z,92750.47
2022-12-29T15:56:06.158Z,92758.00
2022-12-29T15:58:42.234Z,92762.16
2022-12-29T16:01:19.971Z,92755.94
2022-12-29T16:03:53.425Z,92743.72
2022-12-29T16:06:29.635Z,92762.66
2022-12-29T16:09:05.118Z,92759.56
2022-12-29T16:11:40.456Z,92749.72
2022-12-29T16:14:17.310Z,92760.06
2022-12-29T16:16:51.383Z,92755.41
2022-12-29T16:19:29.099Z,92760.84
2022-12-29T16:22:04.089Z,92770.22
2022-12-29T16:24:40.233Z,92757.75
2022-12-29T16:27:22.864Z,92772.28
2022-12-29T16:29:55.765Z,92762.44
2022-12-29T16:32:31.534Z,92755.09
2022-12-29T16:35:12.701Z,92764.44
2022-12-29T16:37:46.052Z,92762.88
2022-12-29T16:40:26.626Z,92759.00
2022-12-29T16:43:01.370Z,92765.47
2022-12-29T16:46:17.799Z,92765.44
2022-12-29T16:48:53.881Z,92764.63
2022-12-29T16:51:32.508Z,92764.63
2022-12-29T16:54:05.365Z,92763.06
2022-12-29T16:56:43.839Z,92776.25
2022-12-29T16:59:31.534Z,92778.31
2022-12-29T17:02:07.987Z,92769.72
2022-12-29T17:04:41.341Z,92770.50
2022-12-29T17:07:17.511Z,92772.03
2022-12-29T17:09:50.826Z,92778.03
2022-12-29T17:12:26.722Z,92781.09
2022-12-29T17:15:01.913Z,92774.84
2022-12-29T17:17:35.989Z,92772.53
2022-12-29T17:20:19.035Z,92779.50
2022-12-29T17:22:53.487Z,92767.09
2022-12-29T17:25:30.034Z,92763.47
2022-12-29T17:28:04.962Z,92772.28
2022-12-29T17:30:37.312Z,92774.09
2022-12-29T17:33:14.096Z,92776.75
2022-12-29T17:35:53.209Z,92778.53
2022-12-29T17:38:29.336Z,92779.88
2022-12-29T17:41:02.049Z,92770.81
2022-12-29T17:43:36.935Z,92772.66
2022-12-29T17:46:09.768Z,92769.81
2022-12-29T17:48:42.092Z,92769.59
2022-12-29T17:51:15.512Z,92779.44
2022-12-29T17:53:49.561Z,92768.56
2022-12-29T17:56:22.099Z,92776.09
2022-12-29T17:58:55.362Z,92767.56
2022-12-29T18:01:33.960Z,92770.44
2022-12-29T18:04:12.100Z,92768.34
2022-12-29T18:06:46.285Z,92758.22
2022-12-29T18:09:18.591Z,92763.69
2022-12-29T18:11:51.024Z,92756.69
2022-12-29T18:14:24.450Z,92757.44
2022-12-29T18:16:56.809Z,92756.16
2022-12-29T18:19:34.025Z,92752.81
2022-12-29T18:22:09.204Z,92761.88
2022-12-29T18:24:41.518Z,92753.81
2022-12-29T18:27:15.445Z,92739.56
2022-12-29T18:29:48.324Z,92752.78
2022-12-29T18:32:20.893Z,92752.78
2022-12-29T18:34:53.234Z,92754.88
2022-12-29T18:37:26.260Z,92755.13
2022-12-29T18:39:58.752Z,92751.25
2022-12-29T18:42:31.221Z,92754.59
2022-12-29T18:45:21.469Z,92756.41
2022-12-29T18:47:53.800Z,92763.16
2022-12-29T18:50:27.321Z,92764.72
2022-12-29T18:53:03.994Z,92756.16
2022-12-29T18:55:36.774Z,92756.16
2022-12-29T18:58:09.168Z,92758.75
2022-12-29T19:00:41.985Z,92758.22
2022-12-29T19:03:16.911Z,92764.72
2022-12-29T19:05:49.256Z,92752.53
2022-12-29T19:08:22.336Z,92758.75
2022-12-29T19:10:54.721Z,92760.59
2022-12-29T19:13:28.850Z,92759.31
2022-12-29T19:16:01.426Z,92755.66
2022-12-29T19:19:05.696Z,92754.59
2022-12-29T19:21:26.224Z,92755.88
2022-12-29T19:23:59.604Z,92757.72
2022-12-29T19:26:35.357Z,92762.13
2022-12-29T19:29:13.260Z,92761.34
2022-12-29T19:31:45.900Z,92758.25
2022-12-29T19:34:18.314Z,92762.91
2022-12-29T19:36:50.639Z,92763.94
2022-12-29T19:39:23.691Z,92759.31
2022-12-29T19:41:59.091Z,92760.84
2022-12-29T19:44:34.489Z,92763.97
2022-12-29T19:47:07.190Z,92766.03
2022-12-29T19:49:39.677Z,92757.97
2022-12-29T19:52:12.631Z,92776.16
2022-12-29T19:54:45.657Z,92772.00
2022-12-29T19:57:18.418Z,92769.16
2022-12-29T19:59:51.214Z,92771.75
2022-12-29T20:02:25.713Z,92772.28
2022-12-29T20:04:58.587Z,92766.81
2022-12-29T20:07:31.023Z,92767.06
2022-12-29T20:10:04.869Z,92772.00
2022-12-29T20:12:37.710Z,92770.44
2022-12-29T20:15:11.531Z,92765.78
2022-12-29T20:18:12.664Z,92764.97
2022-12-29T20:20:36.126Z,92773.03
2022-12-29T20:23:08.482Z,92772.50
2022-12-29T20:25:45.310Z,92773.75
2022-12-29T20:28:27.067Z,92772.25
2022-12-29T20:31:01.731Z,92778.47
2022-12-29T20:33:35.586Z,92775.34
2022-12-29T20:36:10.853Z,92770.66
2022-12-29T20:38:44.464Z,92769.38
2022-12-29T20:41:18.416Z,92772.47
2022-12-29T20:43:52.433Z,92774.00
2022-12-29T20:46:31.942Z,92771.94
2022-12-29T20:49:07.858Z,92777.09
2022-12-29T20:52:07.314Z,92777.91
2022-12-29T20:54:39.164Z,92780.22
2022-12-29T20:57:12.977Z,92774.50
2022-12-29T20:59:45.433Z,92774.78
2022-12-29T21:02:19.959Z,92783.88
2022-12-29T21:07:44.924Z,92770.13
2022-12-29T21:10:17.827Z,92773.75
2022-12-29T21:12:50.854Z,92777.94
2022-12-29T21:15:23.266Z,92775.06
2022-12-29T21:17:55.643Z,92781.03
2022-12-29T21:20:31.524Z,92775.88
2022-12-29T21:23:04.050Z,92776.38
2022-12-29T21:25:39.271Z,92786.50
2022-12-29T21:28:12.369Z,92781.06
2022-12-29T21:30:44.859Z,92778.97
2022-12-29T21:33:17.980Z,92784.72
2022-12-29T21:35:50.290Z,92788.56
2022-12-29T21:38:22.677Z,92778.72
2022-12-29T21:40:55.021Z,92778.75
2022-12-29T21:43:28.047Z,92774.31
2022-12-29T21:46:00.143Z,92773.53
2022-12-29T21:48:33.032Z,92770.13
2022-12-29T21:51:30.354Z,92764.97
2022-12-29T21:54:18.086Z,92766.50
2022-12-29T21:56:51.075Z,92765.97
2022-12-29T21:59:42.267Z,92768.84
2022-12-29T22:02:37.845Z,92765.47
2022-12-29T22:05:30.066Z,92767.03
2022-12-29T22:08:21.017Z,92761.34
2022-12-29T22:11:11.535Z,92762.88
2022-12-29T22:13:43.860Z,92758.22
2022-12-29T22:16:17.567Z,92760.81
2022-12-29T22:18:50.189Z,92749.41
2022-12-29T22:21:22.500Z,92758.75
2022-12-29T22:23:54.912Z,92759.00
2022-12-29T22:26:27.225Z,92755.59
2022-12-29T22:28:59.765Z,92750.41
2022-12-29T22:31:33.176Z,92748.84
2022-12-29T22:34:05.759Z,92743.66
2022-12-29T22:36:38.047Z,92749.38
2022-12-29T22:39:10.425Z,92753.53
2022-12-29T22:41:43.256Z,92744.19
2022-12-29T22:44:15.645Z,92738.22
2022-12-29T22:46:48.671Z,92748.84
2022-12-29T22:49:21.091Z,92739.78
2022-12-29T22:51:53.663Z,92739.25
2022-12-29T22:54:26.187Z,92743.41
2022-12-29T22:56:58.557Z,92739.75
2022-12-29T22:59:31.141Z,92738.47
2022-12-29T23:02:04.142Z,92737.44
2022-12-29T23:05:05.359Z,92743.66
2022-12-29T23:07:29.283Z,92741.34
2022-12-29T23:10:02.477Z,92736.41
2022-12-29T23:12:34.856Z,92735.63
2022-12-29T23:15:08.304Z,92740.81
2022-12-29T23:17:41.275Z,92740.03
2022-12-29T23:20:14.312Z,92737.97
2022-12-29T23:22:46.620Z,92729.66
2022-12-29T23:25:19.031Z,92735.91
2022-12-29T23:27:51.351Z,92732.00
2022-12-29T23:30:23.728Z,92729.94
2022-12-29T23:32:56.732Z,92731.47
2022-12-29T23:35:29.082Z,92731.75
2022-12-29T23:38:01.370Z,92731.75
2022-12-29T23:40:33.755Z,92727.59
2022-12-29T23:43:06.080Z,92724.75
2022-12-29T23:45:38.875Z,92729.66
2022-12-29T23:48:12.538Z,92734.84
2022-12-29T23:50:45.227Z,92726.56
2022-12-29T23:53:17.704Z,92728.63
2022-12-29T23:55:53.242Z,92726.28
2022-12-29T23:58:25.610Z,92724.94
